Pike, California
Current Conditions -  °F | °C
As of 8:00 PM on Saturday 25 Oct 2014 (Local Time) from KGOO Reporting Station
Overcast Overcast  
Wind Chill: 50°   Ceiling: 800
Heat Index: 50°   Visibility: 7mi
Dew Point: 50°   Wind: 6mph
Humidity: 100%   Direction: 170°S
Pressure: 30.11"   Gusts: NA
Location:  39.3506°N, 121.137°W
Report Text: KGOO 260300Z AUTO 17005KT 7SM SCT004 BKN008 OVC017 10/10 A3011 RMK AO1 P0019
Loading
Personal Weather Stations






























Interactive Weather Map
Tropical Storm Tracking
New forecast layout! Learn more

10-Day Weather Forecast

Advertisements
Track Severe Weather on mobile